Time;durP1;ratioP1;P1;durP2;ratioP2;P2;SDS_P1;SDS_P2;PMS_P1;PMS_P2;Temp;Humidity;BMP_temperature;BMP_pressure;BME280_temperature;BME280_humidity;BME280_pressure;Samples;Min_cycle;Max_cycle;Signal;HPM_P1;HPM_P2
2021/09/04 00:00:23;;;;;;;7.88;5.15;;;;;;;17.60;67.31;99931.16;815274;54;20035;-78
2021/09/04 00:01:09;;;;;;;8.25;5.35;;;;;;;17.59;67.74;99928.66;815283;54;20038;-78
2021/09/04 00:01:57;;;;;;;7.47;5.30;;;;;;;17.61;67.28;99930.13;815199;54;20817;-78
2021/09/04 00:02:43;;;;;;;7.80;5.25;;;;;;;17.58;67.44;99930.50;815220;47;20038;-78
2021/09/04 00:03:32;;;;;;;7.18;5.45;;;;;;;17.50;67.75;99930.63;815199;54;20046;-78
2021/09/04 00:04:18;;;;;;;8.98;5.28;;;;;;;17.45;67.72;99928.50;815316;54;20090;-77
2021/09/04 00:05:08;;;;;;;7.90;5.63;;;;;;;17.32;68.36;99923.00;815262;47;20043;-78
2021/09/04 00:05:54;;;;;;;9.07;6.40;;;;;;;17.14;68.87;99926.94;815206;47;20924;-78
2021/09/04 00:06:42;;;;;;;8.85;6.55;;;;;;;17.09;69.26;99918.59;815045;54;20019;-78
2021/09/04 00:07:30;;;;;;;10.63;7.28;;;;;;;17.04;69.29;99933.69;815099;47;20794;-78
2021/09/04 00:08:19;;;;;;;9.13;6.70;;;;;;;16.92;69.92;99931.44;815435;54;20026;-79
2021/09/04 00:09:05;;;;;;;10.80;7.00;;;;;;;16.84;69.97;99935.09;815431;54;20433;-78
2021/09/04 00:09:53;;;;;;;9.40;7.70;;;;;;;16.80;70.41;99935.66;815361;46;20064;-78
2021/09/04 00:10:46;;;;;;;10.55;8.02;;;;;;;16.73;70.47;99935.56;815509;54;20125;-78
2021/09/04 00:11:35;;;;;;;12.05;7.72;;;;;;;16.74;70.49;99931.84;815537;54;20035;-78
2021/09/04 00:12:21;;;;;;;9.40;7.20;;;;;;;16.77;70.16;99936.03;815425;54;20102;-78
2021/09/04 00:13:10;;;;;;;9.30;7.18;;;;;;;16.74;70.61;99937.25;815484;54;20066;-79
2021/09/04 00:13:59;;;;;;;11.68;7.65;;;;;;;16.68;70.76;99937.97;815494;47;20098;-78
2021/09/04 00:14:47;;;;;;;9.95;7.35;;;;;;;16.61;70.79;99935.22;815513;54;20066;-78
2021/09/04 00:15:33;;;;;;;8.77;7.00;;;;;;;16.55;71.17;99937.81;815651;46;20064;-78
2021/09/04 00:16:22;;;;;;;9.93;7.43;;;;;;;16.55;71.25;99937.81;815454;54;20058;-77
2021/09/04 00:17:08;;;;;;;11.07;7.63;;;;;;;16.42;71.66;99942.00;815229;47;20164;-78
2021/09/04 00:17:57;;;;;;;9.95;7.40;;;;;;;16.38;71.78;99952.31;815372;54;20034;-78
2021/09/04 00:18:42;;;;;;;12.23;7.78;;;;;;;16.33;71.95;99940.41;815350;47;20038;-78
2021/09/04 00:19:31;;;;;;;11.70;8.45;;;;;;;16.24;72.18;99945.06;815298;54;20039;-78
2021/09/04 00:20:18;;;;;;;9.88;7.30;;;;;;;16.26;72.19;99951.09;815348;47;21018;-78
2021/09/04 00:21:07;;;;;;;10.20;6.90;;;;;;;16.23;71.97;99940.69;815279;47;20034;-79
2021/09/04 00:21:53;;;;;;;9.43;6.93;;;;;;;16.07;72.45;99947.09;815513;54;20023;-78
2021/09/04 00:22:42;;;;;;;8.90;7.18;;;;;;;15.99;72.83;99934.50;815414;54;20038;-78
2021/09/04 00:23:28;;;;;;;10.30;7.63;;;;;;;15.99;72.55;99942.59;815434;54;20030;-78
2021/09/04 00:24:17;;;;;;;12.38;7.20;;;;;;;15.89;73.03;99942.88;815422;54;20034;-78
2021/09/04 00:25:03;;;;;;;9.63;6.90;;;;;;;15.98;72.42;99940.09;815502;46;20094;-78
2021/09/04 00:25:52;;;;;;;12.32;6.80;;;;;;;16.03;72.31;99943.91;815609;46;20034;-78
2021/09/04 00:26:38;;;;;;;9.57;7.07;;;;;;;15.95;72.40;99943.13;815514;54;20050;-78
2021/09/04 00:27:27;;;;;;;11.85;6.80;;;;;;;15.88;72.54;99943.03;815484;54;20034;-78
2021/09/04 00:28:13;;;;;;;9.20;6.88;;;;;;;15.92;72.67;99944.34;815217;54;20064;-78
2021/09/04 00:29:05;;;;;;;9.93;7.13;;;;;;;15.88;72.37;99938.50;815301;47;20041;-78
2021/09/04 00:29:51;;;;;;;8.52;6.10;;;;;;;15.89;72.59;99944.72;817382;31;20901;-79
2021/09/04 00:30:40;;;;;;;10.88;6.80;;;;;;;15.81;72.40;99944.75;815454;47;20060;-77
2021/09/04 00:31:26;;;;;;;8.93;6.25;;;;;;;15.75;72.58;99947.16;815482;54;20039;-78
2021/09/04 00:32:15;;;;;;;8.85;6.43;;;;;;;15.73;72.65;99941.09;815492;54;20782;-77
2021/09/04 00:33:01;;;;;;;8.10;6.22;;;;;;;15.69;72.82;99942.47;815401;54;20164;-78
2021/09/04 00:33:50;;;;;;;10.50;6.95;;;;;;;15.72;72.72;99944.00;815601;54;20034;-78
2021/09/04 00:34:36;;;;;;;8.63;6.75;;;;;;;15.68;72.88;99948.88;815444;54;20064;-79
2021/09/04 00:35:25;;;;;;;10.02;6.88;;;;;;;15.65;73.12;99943.03;815505;54;20034;-78
2021/09/04 00:36:11;;;;;;;9.13;6.57;;;;;;;15.61;73.29;99939.84;815514;54;20038;-78
2021/09/04 00:37:00;;;;;;;8.82;6.18;;;;;;;15.65;72.73;99943.88;815500;54;20046;-78
2021/09/04 00:37:46;;;;;;;8.82;6.32;;;;;;;15.63;73.03;99935.13;815498;46;20123;-78
2021/09/04 00:38:35;;;;;;;9.93;5.95;;;;;;;15.59;73.03;99936.50;815413;47;20042;-76
2021/09/04 00:39:21;;;;;;;9.52;6.43;;;;;;;15.59;73.00;99934.66;815442;47;20132;-79
2021/09/04 00:40:11;;;;;;;10.68;6.53;;;;;;;15.62;72.82;99933.44;815437;46;20034;-77
2021/09/04 00:40:58;;;;;;;8.30;5.97;;;;;;;15.58;73.13;99932.16;815617;54;20038;-78
2021/09/04 00:41:47;;;;;;;7.32;5.38;;;;;;;15.62;72.85;99938.84;815366;54;20065;-78
2021/09/04 00:42:33;;;;;;;7.55;5.78;;;;;;;15.62;72.67;99932.63;815373;47;20094;-77
2021/09/04 00:43:22;;;;;;;8.55;6.45;;;;;;;15.73;72.25;99934.88;815400;46;20019;-77
2021/09/04 00:44:14;;;;;;;11.55;6.25;;;;;;;15.64;72.88;99933.25;815656;54;20038;-78
2021/09/04 00:45:02;;;;;;;9.52;6.18;;;;;;;15.68;72.47;99938.09;815469;47;20042;-77
2021/09/04 00:45:48;;;;;;;8.52;5.93;;;;;;;15.71;72.25;99928.84;815741;54;20119;-78
2021/09/04 00:46:37;;;;;;;9.15;5.47;;;;;;;15.74;72.21;99926.63;815785;54;20062;-78
2021/09/04 00:47:23;;;;;;;11.25;6.00;;;;;;;15.73;72.36;99934.88;815816;54;20039;-78
2021/09/04 00:48:13;;;;;;;7.63;5.43;;;;;;;15.75;72.06;99927.44;815678;54;20035;-77
2021/09/04 00:48:59;;;;;;;;;;;;;;;15.68;72.79;99930.03;815607;54;20046;-78
2021/09/04 00:49:47;;;;;;;9.30;5.63;;;;;;;15.72;72.00;99923.25;820773;39;20742;-78
2021/09/04 00:50:36;;;;;;;10.23;5.97;;;;;;;15.75;72.31;99925.59;815240;47;20042;-77
2021/09/04 00:51:24;;;;;;;9.57;6.43;;;;;;;15.70;72.20;99930.69;815833;54;20034;-78
2021/09/04 00:52:10;;;;;;;7.35;5.80;;;;;;;15.68;72.58;99937.28;815390;54;20038;-77
2021/09/04 00:52:59;;;;;;;7.80;5.97;;;;;;;15.69;72.35;99931.69;815463;54;20722;-78
2021/09/04 00:53:45;;;;;;;8.00;5.78;;;;;;;15.73;72.63;99929.47;815453;54;20133;-77
2021/09/04 00:54:34;;;;;;;7.40;5.70;;;;;;;15.69;72.29;99931.69;815492;54;20034;-78
2021/09/04 00:55:21;;;;;;;9.65;6.38;;;;;;;15.67;72.68;99930.22;815433;54;20071;-79
2021/09/04 00:56:10;;;;;;;9.45;5.72;;;;;;;15.77;72.52;99924.59;815657;54;20058;-78
2021/09/04 00:56:56;;;;;;;7.63;5.93;;;;;;;15.69;72.26;99929.00;815514;54;20039;-77
2021/09/04 00:57:42;;;;;;;8.43;5.95;;;;;;;15.74;72.45;99926.63;819007;39;21230;-79
2021/09/04 00:58:31;;;;;;;7.82;5.72;;;;;;;15.78;72.27;99932.47;815663;39;20983;-77
2021/09/04 00:59:19;;;;;;;7.25;5.40;;;;;;;15.81;72.13;99934.81;815389;54;20102;-77
2021/09/04 01:00:10;;;;;;;8.40;6.18;;;;;;;15.86;72.02;99935.13;816023;46;20050;-78
2021/09/04 01:00:56;;;;;;;;;;;;;;;15.82;72.15;99927.56;815893;54;20045;-77
2021/09/04 01:01:45;;;;;;;8.63;6.00;;;;;;;15.90;71.57;99930.22;817890;39;20335;-78
2021/09/04 01:02:32;;;;;;;8.55;6.50;;;;;;;15.98;71.55;99932.81;816571;39;20813;-78
2021/09/04 01:03:21;;;;;;;10.07;6.18;;;;;;;16.04;71.16;99929.41;815709;54;20034;-78
2021/09/04 01:04:08;;;;;;;7.55;5.57;;;;;;;16.10;71.09;99937.78;815598;46;20039;-79
2021/09/04 01:04:57;;;;;;;7.65;5.60;;;;;;;16.15;70.74;99938.91;819112;39;20057;-78
2021/09/04 01:05:43;;;;;;;7.65;5.80;;;;;;;16.17;70.84;99942.25;815743;54;20053;-78
2021/09/04 01:06:33;;;;;;;8.32;6.28;;;;;;;16.22;70.77;99933.63;817249;39;20916;-78
2021/09/04 01:07:19;;;;;;;7.60;5.70;;;;;;;16.24;70.51;99928.03;815429;54;20062;-78
2021/09/04 01:08:08;;;;;;;6.97;5.55;;;;;;;16.26;70.43;99937.59;815252;54;20065;-78
2021/09/04 01:08:55;;;;;;;9.50;6.50;;;;;;;16.26;70.46;99932.22;815445;47;20049;-78
2021/09/04 01:09:44;;;;;;;7.53;5.68;;;;;;;16.27;70.63;99927.66;815349;47;20041;-78
2021/09/04 01:10:31;;;;;;;7.43;5.78;;;;;;;16.29;70.16;99934.56;815741;54;20087;-78
2021/09/04 01:11:22;;;;;;;7.40;5.45;;;;;;;16.31;70.43;99927.13;822561;39;21007;-78
2021/09/04 01:12:09;;;;;;;7.05;5.07;;;;;;;16.34;69.91;99932.13;820206;39;20940;-78
2021/09/04 01:12:58;;;;;;;7.25;5.45;;;;;;;16.37;69.84;99923.66;821560;39;20860;-79
2021/09/04 01:13:44;;;;;;;7.50;5.50;;;;;;;16.38;69.91;99933.44;815731;54;20038;-79
2021/09/04 01:14:36;;;;;;;7.50;5.10;;;;;;;16.42;70.04;99922.28;815685;54;20035;-78
2021/09/04 01:15:22;;;;;;;8.15;5.38;;;;;;;16.45;69.97;99930.00;815476;46;20038;-78
2021/09/04 01:16:11;;;;;;;7.25;5.80;;;;;;;16.17;70.33;99927.94;815509;54;20075;-78
2021/09/04 01:16:57;;;;;;;8.75;6.45;;;;;;;15.96;71.26;99929.50;815364;54;20023;-78
2021/09/04 01:17:46;;;;;;;8.85;7.05;;;;;;;15.86;71.49;99927.03;817079;39;20975;-78
2021/09/04 01:18:32;;;;;;;9.75;7.07;;;;;;;15.80;71.85;99933.16;815306;47;20550;-77
2021/09/04 01:19:21;;;;;;;8.38;6.65;;;;;;;15.73;72.31;99932.16;815425;54;20034;-78
2021/09/04 01:20:08;;;;;;;8.23;6.72;;;;;;;15.68;72.30;99938.09;815453;39;20626;-78
2021/09/04 01:20:58;;;;;;;9.82;7.30;;;;;;;15.60;72.56;99930.09;815444;47;20041;-77
2021/09/04 01:21:44;;;;;;;9.55;7.28;;;;;;;15.53;73.01;99929.16;815506;54;20071;-77
2021/09/04 01:22:32;;;;;;;11.18;6.95;;;;;;;15.42;73.09;99936.63;815399;47;20070;-78
2021/09/04 01:23:21;;;;;;;9.95;6.97;;;;;;;15.43;73.39;99932.91;815262;46;20083;-78
2021/09/04 01:24:08;;;;;;;8.73;6.65;;;;;;;15.39;73.37;99933.44;815468;54;20163;-78
2021/09/04 01:24:54;;;;;;;7.85;6.60;;;;;;;15.37;73.28;99932.78;815382;54;20101;-78
2021/09/04 01:25:44;;;;;;;8.98;6.82;;;;;;;15.33;73.53;99926.91;817941;39;20424;-78
2021/09/04 01:26:33;;;;;;;9.02;6.75;;;;;;;15.35;73.78;99935.66;815223;54;20044;-77
2021/09/04 01:27:22;;;;;;;9.48;6.50;;;;;;;15.36;73.40;99934.66;813738;47;20691;-77
2021/09/04 01:28:09;;;;;;;9.80;7.45;;;;;;;15.31;73.51;99930.81;813589;47;20788;-77
2021/09/04 01:28:58;;;;;;;11.50;6.75;;;;;;;15.34;73.55;99930.47;814113;54;20042;-78
2021/09/04 01:29:45;;;;;;;8.05;6.15;;;;;;;15.37;73.45;99930.94;813935;54;20071;-76
2021/09/04 01:30:36;;;;;;;13.10;7.85;;;;;;;15.28;73.65;99934.72;814606;47;20034;-77
2021/09/04 01:31:22;;;;;;;9.80;6.50;;;;;;;15.19;73.73;99933.09;814805;47;20758;-77
2021/09/04 01:32:11;;;;;;;12.68;7.00;;;;;;;15.22;74.07;99932.72;814504;47;20106;-78
2021/09/04 01:32:57;;;;;;;10.13;6.35;;;;;;;15.18;74.04;99928.72;814764;54;20583;-78
2021/09/04 01:33:47;;;;;;;8.77;6.63;;;;;;;15.20;74.16;99932.06;814853;47;20042;-77
2021/09/04 01:34:33;;;;;;;9.90;7.13;;;;;;;15.12;73.98;99925.69;814774;54;20043;-76
2021/09/04 01:35:24;;;;;;;9.35;7.63;;;;;;;15.04;74.61;99931.13;814561;47;20042;-76
2021/09/04 01:36:11;;;;;;;10.88;6.80;;;;;;;15.00;74.70;99928.97;815094;54;20102;-77
2021/09/04 01:37:00;;;;;;;10.63;7.40;;;;;;;14.98;74.75;99923.78;814659;47;20035;-77
2021/09/04 01:37:46;;;;;;;9.80;6.97;;;;;;;14.98;74.67;99926.47;815021;54;20038;-77
2021/09/04 01:38:35;;;;;;;8.63;6.60;;;;;;;14.96;74.88;99928.50;815028;54;20042;-77
2021/09/04 01:39:21;;;;;;;10.40;7.28;;;;;;;14.93;74.95;99918.94;815034;54;20095;-76
2021/09/04 01:40:13;;;;;;;8.45;6.65;;;;;;;14.95;75.05;99922.28;814612;47;20042;-76
2021/09/04 01:41:00;;;;;;;9.80;6.47;;;;;;;15.02;74.59;99917.00;815012;46;20070;-76
2021/09/04 01:41:52;;;;;;;9.07;7.10;;;;;;;14.98;74.75;99921.09;815031;54;20042;-76
2021/09/04 01:42:39;;;;;;;9.48;6.97;;;;;;;14.97;74.67;99916.72;814847;47;20102;-77
2021/09/04 01:43:28;;;;;;;9.60;6.70;;;;;;;14.94;74.65;99919.75;815111;46;20035;-77
2021/09/04 01:44:14;;;;;;;10.30;7.22;;;;;;;14.89;75.00;99925.66;814988;47;20053;-76
2021/09/04 01:45:03;;;;;;;9.65;7.03;;;;;;;14.88;74.81;99926.66;815865;31;20773;-76
2021/09/04 01:45:50;;;;;;;9.38;7.13;;;;;;;14.88;75.36;99920.47;814961;54;20039;-76
2021/09/04 01:46:39;;;;;;;10.07;7.20;;;;;;;14.97;74.78;99922.09;814858;54;20046;-78
2021/09/04 01:47:26;;;;;;;10.48;7.65;;;;;;;14.91;74.97;99928.19;815053;47;20046;-76
2021/09/04 01:48:15;;;;;;;8.68;6.28;;;;;;;14.92;74.84;99919.94;815441;54;20035;-76
2021/09/04 01:49:01;;;;;;;9.23;6.70;;;;;;;14.93;75.02;99929.69;815118;47;20035;-76
2021/09/04 01:49:51;;;;;;;9.32;6.78;;;;;;;14.93;75.13;99924.31;815079;47;20042;-76
2021/09/04 01:50:37;;;;;;;10.10;6.97;;;;;;;14.93;75.07;99924.31;814845;46;20038;-77
2021/09/04 01:51:26;;;;;;;9.60;6.97;;;;;;;14.88;74.88;99917.78;814381;47;20067;-76
2021/09/04 01:52:12;;;;;;;11.02;6.35;;;;;;;14.87;75.20;99916.94;814223;54;20050;-79
2021/09/04 01:53:01;;;;;;;10.63;7.13;;;;;;;14.82;75.34;99927.38;813930;54;20034;-78
2021/09/04 01:53:47;;;;;;;8.73;6.53;;;;;;;14.88;75.05;99923.16;814006;47;20046;-77
2021/09/04 01:54:36;;;;;;;8.95;6.20;;;;;;;14.88;75.19;99917.78;814130;47;20046;-78
2021/09/04 01:55:22;;;;;;;9.35;7.05;;;;;;;14.90;74.93;99915.75;814107;47;20026;-78
2021/09/04 01:56:12;;;;;;;10.63;6.68;;;;;;;14.89;75.02;99917.59;814003;47;20125;-76
2021/09/04 01:57:02;;;;;;;8.88;6.28;;;;;;;14.89;75.15;99911.38;813837;39;20438;-77
2021/09/04 01:57:51;;;;;;;10.15;6.88;;;;;;;14.82;75.11;99922.84;813860;54;20067;-78
2021/09/04 01:58:38;;;;;;;7.93;6.20;;;;;;;14.78;75.26;99916.13;813980;54;20667;-78
2021/09/04 01:59:24;;;;;;;10.18;6.72;;;;;;;14.77;75.11;99917.16;813811;54;20035;-78
2021/09/04 02:00:15;;;;;;;8.48;6.38;;;;;;;14.76;75.38;99918.16;813926;47;20048;-77
2021/09/04 02:01:01;;;;;;;8.70;6.60;;;;;;;14.80;74.99;99913.25;814018;47;20716;-78
2021/09/04 02:01:50;;;;;;;9.38;6.30;;;;;;;14.88;74.96;99917.78;814150;47;20069;-77
2021/09/04 02:02:36;;;;;;;9.85;6.20;;;;;;;14.88;74.66;99921.28;813678;47;20053;-78
2021/09/04 02:03:24;;;;;;;7.45;5.95;;;;;;;14.89;74.51;99912.22;813771;47;20616;-77
2021/09/04 02:04:11;;;;;;;8.75;6.28;;;;;;;14.95;74.41;99921.44;814213;54;20080;-77
2021/09/04 02:04:59;;;;;;;8.70;5.75;;;;;;;15.04;74.28;99908.78;815076;39;20590;-76
2021/09/04 02:05:45;;;;;;;8.90;5.70;;;;;;;15.06;73.73;99907.59;813787;54;20053;-77
2021/09/04 02:06:34;;;;;;;7.70;5.53;;;;;;;15.10;73.84;99903.53;814849;31;20649;-76
2021/09/04 02:07:22;;;;;;;12.10;6.85;;;;;;;15.17;73.45;99902.81;813572;54;20184;-76
2021/09/04 02:08:11;;;;;;;7.82;6.00;;;;;;;15.13;73.64;99903.16;813798;47;20035;-77
2021/09/04 02:08:57;;;;;;;11.18;5.97;;;;;;;15.03;73.69;99905.22;813954;47;20046;-78
2021/09/04 02:09:46;;;;;;;10.48;5.90;;;;;;;14.98;73.96;99902.25;813757;54;20041;-78
2021/09/04 02:10:32;;;;;;;8.20;6.22;;;;;;;14.95;74.08;99900.75;814011;46;20046;-78
2021/09/04 02:11:21;;;;;;;8.43;6.18;;;;;;;14.95;74.23;99910.66;814094;54;20042;-78
2021/09/04 02:12:10;;;;;;;8.40;6.18;;;;;;;14.83;74.56;99918.31;814171;47;20070;-78
2021/09/04 02:12:59;;;;;;;9.02;6.07;;;;;;;14.76;74.81;99911.94;813731;47;20071;-77
2021/09/04 02:13:45;;;;;;;9.70;6.50;;;;;;;14.73;75.07;99915.84;814209;54;20110;-76
2021/09/04 02:14:32;;;;;;;10.15;7.03;;;;;;;14.71;75.03;99909.78;814055;54;20059;-77
2021/09/04 02:15:21;;;;;;;10.68;5.93;;;;;;;14.71;75.12;99915.16;815283;39;20598;-77
2021/09/04 02:16:07;;;;;;;12.65;6.53;;;;;;;14.74;75.05;99920.19;814141;54;20069;-78
2021/09/04 02:16:53;;;;;;;8.18;6.18;;;;;;;14.66;75.22;99917.50;813950;47;20048;-77
2021/09/04 02:17:42;;;;;;;10.55;6.97;;;;;;;14.64;75.33;99916.84;814064;54;20041;-76
2021/09/04 02:18:33;;;;;;;8.70;6.43;;;;;;;14.60;75.14;99919.03;813879;54;20030;-77
2021/09/04 02:19:22;;;;;;;9.20;6.30;;;;;;;14.61;75.32;99909.94;814908;54;20065;-77
2021/09/04 02:20:10;;;;;;;9.90;6.80;;;;;;;14.61;75.08;99909.94;814192;47;20167;-76
2021/09/04 02:20:56;;;;;;;9.60;5.88;;;;;;;14.70;75.06;99908.09;814004;54;20110;-76
2021/09/04 02:21:45;;;;;;;7.80;5.72;;;;;;;14.72;74.92;99908.78;814103;47;20035;-77
2021/09/04 02:22:31;;;;;;;8.95;5.63;;;;;;;14.80;74.45;99913.25;813778;54;20177;-77
2021/09/04 02:23:20;;;;;;;9.43;6.25;;;;;;;14.86;74.36;99917.09;814143;54;20034;-76
2021/09/04 02:24:07;;;;;;;7.53;5.70;;;;;;;14.90;74.18;99916.56;814158;54;20050;-76
2021/09/04 02:24:55;;;;;;;8.13;5.60;;;;;;;14.89;74.25;99916.75;814341;54;20065;-77
2021/09/04 02:25:41;;;;;;;8.65;5.38;;;;;;;14.92;73.81;99911.03;813580;46;20149;-77
2021/09/04 02:26:30;;;;;;;8.77;6.28;;;;;;;14.90;74.10;99918.44;816220;39;20834;-76
2021/09/04 02:27:20;;;;;;;7.72;5.72;;;;;;;14.79;74.54;99916.97;814133;54;20616;-78
2021/09/04 02:28:09;;;;;;;9.88;6.25;;;;;;;14.75;74.70;99915.66;813888;47;20450;-77
2021/09/04 02:28:56;;;;;;;10.13;6.55;;;;;;;14.69;74.76;99921.75;814053;54;20101;-77
2021/09/04 02:29:44;;;;;;;10.60;6.78;;;;;;;14.65;74.97;99915.81;813641;54;20077;-76
2021/09/04 02:30:31;;;;;;;8.35;6.28;;;;;;;14.63;75.23;99915.19;816204;39;20586;-77
2021/09/04 02:31:23;;;;;;;8.77;6.38;;;;;;;14.65;75.13;99913.97;813843;47;20553;-76
2021/09/04 02:32:09;;;;;;;8.60;6.30;;;;;;;14.64;75.07;99919.56;813941;54;20047;-76
2021/09/04 02:32:59;;;;;;;9.90;6.43;;;;;;;14.65;75.04;99916.69;813828;54;20091;-76
2021/09/04 02:33:45;;;;;;;8.40;6.53;;;;;;;14.65;75.14;99915.81;813983;46;20038;-76
2021/09/04 02:34:33;;;;;;;8.75;6.13;;;;;;;14.76;74.56;99912.78;813703;47;20042;-79
2021/09/04 02:35:20;;;;;;;8.05;5.47;;;;;;;14.83;74.47;99912.91;813851;47;20063;-75
2021/09/04 02:36:09;;;;;;;7.63;5.93;;;;;;;14.75;74.35;99908.41;813641;47;20034;-77
2021/09/04 02:36:55;;;;;;;10.93;6.75;;;;;;;14.70;74.52;99909.94;813484;54;20088;-76
2021/09/04 02:37:44;;;;;;;8.15;5.88;;;;;;;14.65;74.83;99910.44;813397;47;20034;-78
2021/09/04 02:38:30;;;;;;;10.02;6.32;;;;;;;14.63;74.84;99909.78;813722;54;20062;-76
2021/09/04 02:39:18;;;;;;;9.38;5.55;;;;;;;14.62;75.15;99908.94;813730;54;20093;-77
2021/09/04 02:40:06;;;;;;;7.82;5.85;;;;;;;14.64;75.09;99917.69;813551;54;20034;-78
2021/09/04 02:40:55;;;;;;;9.98;6.57;;;;;;;14.59;74.98;99914.69;813460;47;20038;-77
2021/09/04 02:41:42;;;;;;;8.60;6.32;;;;;;;14.57;75.15;99913.16;813638;47;20038;-77
2021/09/04 02:42:33;;;;;;;8.48;6.40;;;;;;;14.58;75.25;99909.47;813994;54;20035;-77
2021/09/04 02:43:19;;;;;;;9.27;6.03;;;;;;;14.58;75.04;99909.47;813879;54;20112;-78
2021/09/04 02:44:08;;;;;;;11.40;6.47;;;;;;;14.61;75.04;99914.50;813826;47;20035;-76
2021/09/04 02:44:53;;;;;;;9.98;6.53;;;;;;;14.61;75.09;99909.13;813904;47;20046;-78
2021/09/04 02:45:42;;;;;;;8.85;6.32;;;;;;;14.64;75.05;99915.00;814153;47;20043;-77
2021/09/04 02:46:28;;;;;;;8.80;5.88;;;;;;;14.61;74.86;99911.81;814010;54;20554;-76
2021/09/04 02:47:16;;;;;;;9.27;6.00;;;;;;;14.59;74.93;99909.31;814336;54;20057;-76
2021/09/04 02:48:03;;;;;;;8.98;6.07;;;;;;;14.58;75.10;99909.47;813920;47;20134;-78
2021/09/04 02:48:51;;;;;;;9.43;6.78;;;;;;;14.56;75.27;99906.09;814219;54;20777;-78
2021/09/04 02:49:37;;;;;;;8.65;6.43;;;;;;;14.55;75.33;99910.66;813813;47;20038;-77
2021/09/04 02:50:26;;;;;;;10.98;6.43;;;;;;;14.58;74.92;99910.31;813874;54;20034;-78
2021/09/04 02:51:12;;;;;;;9.68;6.07;;;;;;;14.52;75.15;99905.63;813910;54;20047;-77
2021/09/04 02:52:00;;;;;;;11.00;6.85;;;;;;;14.48;75.53;99913.19;814293;39;20301;-77
2021/09/04 02:52:46;;;;;;;9.65;6.85;;;;;;;14.48;75.41;99915.88;813746;54;20073;-77
2021/09/04 02:53:35;;;;;;;9.00;6.38;;;;;;;14.46;75.34;99907.16;813757;54;20034;-77
2021/09/04 02:54:21;;;;;;;9.13;6.50;;;;;;;14.47;75.48;99913.38;813859;47;20042;-77
2021/09/04 02:55:10;;;;;;;9.20;6.22;;;;;;;14.48;75.53;99912.38;813733;54;20042;-77
2021/09/04 02:55:56;;;;;;;9.68;6.32;;;;;;;14.43;75.50;99917.41;814529;39;20362;-77
2021/09/04 02:56:45;;;;;;;9.02;7.00;;;;;;;14.39;75.82;99905.34;813888;54;20046;-77
2021/09/04 02:57:33;;;;;;;11.90;7.15;;;;;;;14.41;75.92;99908.69;813571;54;20030;-76
2021/09/04 02:58:22;;;;;;;9.93;6.78;;;;;;;14.39;75.80;99911.56;813828;47;21041;-76
2021/09/04 02:59:08;;;;;;;9.20;6.70;;;;;;;14.35;76.03;99904.84;813954;47;20039;-76
2021/09/04 03:00:03;;;;;;;9.68;7.43;;;;;;;14.29;76.38;99911.75;814235;54;20042;-77
2021/09/04 03:00:59;;;;;;;10.68;7.15;;;;;;;14.24;76.64;99906.03;814001;54;20488;-76
2021/09/04 03:01:58;;;;;;;9.32;6.75;;;;;;;14.17;76.64;99903.19;813858;47;20042;-76
2021/09/04 03:02:48;;;;;;;9.00;6.63;;;;;;;14.18;76.53;99909.44;814300;54;20042;-76
2021/09/04 03:03:36;;;;;;;10.60;7.10;;;;;;;14.14;76.46;99906.25;813677;54;20066;-77
2021/09/04 03:04:22;;;;;;;9.15;6.53;;;;;;;14.13;76.72;99896.50;813759;54;20031;-77
2021/09/04 03:05:12;;;;;;;10.30;6.95;;;;;;;14.17;76.61;99900.50;814211;54;20034;-78
2021/09/04 03:06:00;;;;;;;13.38;7.57;;;;;;;14.19;76.44;99903.88;813864;47;20060;-76
2021/09/04 03:06:49;;;;;;;9.50;6.97;;;;;;;14.18;76.32;99904.88;813784;47;20647;-77
2021/09/04 03:07:35;;;;;;;9.00;6.85;;;;;;;14.20;76.54;99900.19;814430;54;20047;-77
2021/09/04 03:08:23;;;;;;;9.88;6.28;;;;;;;14.25;76.12;99904.22;813911;54;20102;-77
2021/09/04 03:09:09;;;;;;;9.00;6.45;;;;;;;14.28;76.03;99902.00;813883;47;20079;-76
2021/09/04 03:09:58;;;;;;;8.73;6.38;;;;;;;14.30;75.99;99901.84;813898;47;20109;-77
2021/09/04 03:10:44;;;;;;;10.73;6.40;;;;;;;14.27;76.10;99910.22;813995;47;20619;-78
2021/09/04 03:11:32;;;;;;;11.65;7.55;;;;;;;14.23;76.14;99907.06;813821;54;20068;-76
2021/09/04 03:12:18;;;;;;;9.77;7.15;;;;;;;14.19;76.47;99895.81;813720;47;20047;-77
2021/09/04 03:13:10;;;;;;;10.88;7.28;;;;;;;14.20;76.59;99910.94;813953;47;20059;-76
2021/09/04 03:13:56;;;;;;;8.43;6.57;;;;;;;14.23;76.29;99903.53;813898;54;20038;-77
2021/09/04 03:14:44;;;;;;;10.07;7.82;;;;;;;14.24;76.19;99897.16;814242;54;20059;-76
2021/09/04 03:15:30;;;;;;;9.23;7.60;;;;;;;14.27;76.19;99902.16;814373;39;20408;-77
2021/09/04 03:16:19;;;;;;;10.00;7.35;;;;;;;14.29;75.87;99905.53;813897;47;20870;-78
2021/09/04 03:17:05;;;;;;;9.18;7.28;;;;;;;14.27;76.00;99910.22;814708;39;20338;-78
2021/09/04 03:17:54;;;;;;;11.27;7.82;;;;;;;14.23;76.09;99907.06;813728;54;20058;-77
2021/09/04 03:18:40;;;;;;;9.27;6.90;;;;;;;14.19;76.04;99906.56;813731;47;20042;-77
2021/09/04 03:19:28;;;;;;;10.50;7.30;;;;;;;14.19;76.31;99903.03;814117;54;20034;-76
2021/09/04 03:20:15;;;;;;;10.10;7.60;;;;;;;14.13;76.44;99899.19;813726;54;20034;-77
2021/09/04 03:21:03;;;;;;;10.73;7.45;;;;;;;14.11;76.77;99911.13;813797;54;20165;-76
2021/09/04 03:21:49;;;;;;;10.25;8.07;;;;;;;14.10;76.39;99907.59;814047;47;20046;-77
2021/09/04 03:22:38;;;;;;;10.15;7.55;;;;;;;14.10;76.54;99907.59;814013;54;20058;-76
2021/09/04 03:23:24;;;;;;;9.52;7.45;;;;;;;14.16;76.39;99898.88;814042;54;20047;-77
2021/09/04 03:24:12;;;;;;;10.27;7.00;;;;;;;14.13;76.33;99912.63;813919;54;20066;-77
2021/09/04 03:24:58;;;;;;;8.30;6.13;;;;;;;14.19;76.32;99898.50;814756;39;20537;-77
2021/09/04 03:25:47;;;;;;;9.60;7.00;;;;;;;14.16;76.17;99904.25;814015;47;20066;-78
2021/09/04 03:26:33;;;;;;;11.63;6.18;;;;;;;14.12;76.42;99897.50;813675;47;20668;-76
2021/09/04 03:27:22;;;;;;;8.55;6.15;;;;;;;14.13;76.34;99911.78;813869;54;20038;-78
2021/09/04 03:28:10;;;;;;;8.20;6.25;;;;;;;14.07;76.67;99909.78;813768;47;20102;-76
2021/09/04 03:28:59;;;;;;;9.43;6.40;;;;;;;14.04;76.58;99908.28;813903;47;20034;-77
2021/09/04 03:29:45;;;;;;;9.88;6.68;;;;;;;14.02;76.61;99910.28;813974;54;20141;-76
2021/09/04 03:30:33;;;;;;;10.60;6.78;;;;;;;14.00;76.59;99910.47;813817;47;20034;-77
2021/09/04 03:31:19;;;;;;;11.35;7.10;;;;;;;13.98;76.58;99915.19;813848;54;20616;-77
2021/09/04 03:32:08;;;;;;;10.68;6.30;;;;;;;13.97;76.59;99910.81;813794;47;20078;-77
2021/09/04 03:32:54;;;;;;;8.50;5.85;;;;;;;13.99;76.45;99908.78;813604;47;20042;-77
2021/09/04 03:33:43;;;;;;;8.75;6.45;;;;;;;14.02;76.49;99913.00;814151;47;20042;-77
2021/09/04 03:34:29;;;;;;;7.78;5.97;;;;;;;13.99;76.47;99914.16;813664;54;20050;-76
2021/09/04 03:35:15;;;;;;;8.70;6.00;;;;;;;14.07;76.33;99907.09;813558;54;20364;-77
2021/09/04 03:36:03;;;;;;;8.20;5.80;;;;;;;14.04;76.16;99906.41;814274;39;20520;-76
2021/09/04 03:36:52;;;;;;;8.38;6.13;;;;;;;14.04;76.29;99908.28;813920;39;20365;-78
2021/09/04 03:37:38;;;;;;;10.40;6.00;;;;;;;14.04;76.43;99902.91;814085;54;20063;-77
2021/09/04 03:38:27;;;;;;;8.60;6.20;;;;;;;14.03;76.52;99911.97;813947;47;20067;-77
2021/09/04 03:39:13;;;;;;;8.63;5.85;;;;;;;14.04;76.27;99910.97;814119;54;20038;-77
2021/09/04 03:40:01;;;;;;;8.00;5.90;;;;;;;14.03;76.29;99907.44;814178;47;20039;-77
2021/09/04 03:40:47;;;;;;;8.38;6.18;;;;;;;14.08;76.47;99914.97;813706;54;20047;-77
2021/09/04 03:41:36;;;;;;;8.82;6.20;;;;;;;14.09;76.07;99908.59;813939;47;20042;-77
2021/09/04 03:42:22;;;;;;;9.23;6.15;;;;;;;14.07;76.19;99916.03;814077;54;20039;-78
2021/09/04 03:43:13;;;;;;;10.60;6.43;;;;;;;14.08;76.14;99906.91;813909;47;20039;-76
2021/09/04 03:43:59;;;;;;;9.25;6.20;;;;;;;14.07;76.37;99913.31;814281;46;20039;-78
2021/09/04 03:44:48;;;;;;;8.57;6.38;;;;;;;14.05;76.36;99912.66;814233;47;20043;-76
2021/09/04 03:45:35;;;;;;;9.90;6.28;;;;;;;13.98;76.48;99914.34;814568;39;20368;-78
2021/09/04 03:46:23;;;;;;;9.75;6.55;;;;;;;13.95;76.67;99909.31;814279;54;20114;-77
2021/09/04 03:47:09;;;;;;;10.43;6.47;;;;;;;14.03;76.48;99918.19;814217;54;20071;-77